Time;durP1;ratioP1;P1;durP2;ratioP2;P2;SDS_P1;SDS_P2;PMS_P1;PMS_P2;Temp;Humidity;BMP_temperature;BMP_pressure;BME280_temperature;BME280_humidity;BME280_pressure;Samples;Min_cycle;Max_cycle;Signal;HPM_P1;HPM_P2
2023/10/07 00:01:54;;;;;;;16.70;4.50;;;;;;;;;;5109569;28;20039;-58
2023/10/07 00:04:21;;;;;;;16.15;5.15;;;;;;;;;;5088838;28;20071;-58
2023/10/07 00:06:47;;;;;;;17.65;5.25;;;;;;;;;;5108096;28;20043;-58
2023/10/07 00:09:15;;;;;;;15.90;5.20;;;;;;;;;;5107926;28;20062;-59
2023/10/07 00:11:46;;;;;;;16.85;5.18;;;;;;;;;;5107155;28;20395;-59
2023/10/07 00:14:14;;;;;;;16.77;5.15;;;;;;;;;;5104582;28;20102;-58
2023/10/07 00:16:43;;;;;;;19.90;5.70;;;;;;;;;;5106809;28;20035;-58
2023/10/07 00:19:09;;;;;;;14.15;4.68;;;;;;;;;;5105372;28;20051;-59
2023/10/07 00:21:59;;;;;;;17.45;4.82;;;;;;;;;;5105711;28;20059;-58
2023/10/07 00:24:26;;;;;;;;;;;;;;;;;;5103566;28;20503;-58
2023/10/07 00:26:52;;;;;;;14.68;4.68;;;;;;;;;;5105554;28;19911;-58
2023/10/07 00:29:23;;;;;;;17.33;4.97;;;;;;;;;;5109014;28;20048;-58
2023/10/07 00:31:50;;;;;;;16.55;5.00;;;;;;;;;;5089787;28;20070;-58
2023/10/07 00:34:22;;;;;;;15.00;4.70;;;;;;;;;;5089678;28;20406;-59
2023/10/07 00:36:48;;;;;;;22.05;5.40;;;;;;;;;;5107044;28;20438;-58
2023/10/07 00:39:20;;;;;;;16.23;5.28;;;;;;;;;;5106211;28;20052;-59
2023/10/07 00:41:48;;;;;;;13.98;4.50;;;;;;;;;;5088577;28;20040;-59
2023/10/07 00:44:21;;;;;;;17.73;5.47;;;;;;;;;;5106377;28;20050;-59
2023/10/07 00:47:07;;;;;;;18.83;4.97;;;;;;;;;;5106236;28;20027;-58
2023/10/07 00:49:41;;;;;;;17.85;5.53;;;;;;;;;;5086325;28;20047;-58
2023/10/07 00:52:13;;;;;;;16.80;5.18;;;;;;;;;;5103349;28;20023;-59
2023/10/07 00:57:53;;;;;;;17.88;5.40;;;;;;;;;;5108425;28;20039;-58
2023/10/07 01:02:46;;;;;;;19.08;4.35;;;;;;;;;;5089737;28;20031;-58
2023/10/07 01:05:13;;;;;;;17.88;4.82;;;;;;;;;;5104617;28;20050;-59
2023/10/07 01:07:41;;;;;;;18.42;5.40;;;;;;;;;;5106939;28;20034;-59
2023/10/07 01:12:39;;;;;;;14.13;4.15;;;;;;;;;;5088282;28;20055;-59
2023/10/07 01:15:17;;;;;;;13.68;4.53;;;;;;;;;;5103398;28;20028;-59
2023/10/07 01:18:04;;;;;;;16.05;5.53;;;;;;;;;;5103027;28;20044;-59
2023/10/07 01:20:35;;;;;;;13.68;4.78;;;;;;;;;;5081571;28;20078;-59
2023/10/07 01:23:04;;;;;;;16.02;4.60;;;;;;;;;;5087234;28;20047;-59
2023/10/07 01:25:34;;;;;;;14.30;5.27;;;;;;;;;;5103637;28;20031;-59
2023/10/07 01:28:01;;;;;;;18.58;4.63;;;;;;;;;;5090910;28;20549;-59
2023/10/07 01:30:29;;;;;;;19.15;4.53;;;;;;;;;;5107121;28;20264;-59
2023/10/07 01:35:39;;;;;;;17.65;4.88;;;;;;;;;;5106024;28;20055;-59
2023/10/07 01:38:08;;;;;;;15.73;4.50;;;;;;;;;;5089425;28;20042;-59
2023/10/07 01:40:52;;;;;;;16.13;5.07;;;;;;;;;;5075612;28;20027;-59
2023/10/07 01:43:19;;;;;;;14.13;4.60;;;;;;;;;;5103792;28;20050;-59
2023/10/07 01:45:47;;;;;;;12.98;4.60;;;;;;;;;;5071042;28;20035;-59
2023/10/07 01:48:17;;;;;;;13.73;4.97;;;;;;;;;;5105000;28;20066;-59
2023/10/07 01:50:45;;;;;;;18.33;5.43;;;;;;;;;;5084526;28;20032;-59
2023/10/07 01:53:11;;;;;;;13.70;5.15;;;;;;;;;;5107215;28;20035;-60
2023/10/07 01:55:42;;;;;;;21.63;4.30;;;;;;;;;;5111104;28;20494;-59
2023/10/07 01:58:13;;;;;;;16.17;4.80;;;;;;;;;;5093275;28;20032;-59
2023/10/07 02:03:16;;;;;;;13.77;3.88;;;;;;;;;;5106850;28;20036;-58
2023/10/07 02:05:48;;;;;;;13.68;4.35;;;;;;;;;;5090923;28;20518;-59
2023/10/07 02:08:21;;;;;;;12.82;4.93;;;;;;;;;;5108362;28;20055;-59
2023/10/07 02:10:52;;;;;;;14.68;4.53;;;;;;;;;;5091292;28;20038;-59
2023/10/07 02:13:19;;;;;;;14.07;4.32;;;;;;;;;;5092788;28;20101;-60
2023/10/07 02:15:51;;;;;;;15.48;4.65;;;;;;;;;;5090234;28;20616;-59
2023/10/07 02:18:18;;;;;;;14.77;4.05;;;;;;;;;;5087295;28;20044;-59
2023/10/07 02:20:53;;;;;;;17.55;4.70;;;;;;;;;;5086086;28;20035;-59
2023/10/07 02:23:37;;;;;;;14.10;4.45;;;;;;;;;;5095461;28;20124;-58
2023/10/07 02:26:15;;;;;;;12.45;4.28;;;;;;;;;;5089527;28;20518;-58
2023/10/07 02:28:42;;;;;;;12.05;4.30;;;;;;;;;;5097500;28;20043;-58
2023/10/07 02:31:08;;;;;;;11.48;3.90;;;;;;;;;;5089475;28;20036;-59
2023/10/07 02:36:36;;;;;;;12.60;3.70;;;;;;;;;;5079373;28;20047;-59
2023/10/07 02:39:31;;;;;;;11.50;4.05;;;;;;;;;;5076359;28;20290;-58
2023/10/07 02:41:51;;;;;;;13.02;4.07;;;;;;;;;;5106733;28;20032;-58
2023/10/07 02:44:27;;;;;;;13.85;4.07;;;;;;;;;;5089163;28;20129;-58
2023/10/07 02:46:56;;;;;;;15.43;4.38;;;;;;;;;;5098598;28;20027;-58
2023/10/07 02:49:26;;;;;;;14.00;4.60;;;;;;;;;;5107248;28;20038;-58
2023/10/07 02:51:56;;;;;;;13.50;4.45;;;;;;;;;;5092622;28;20031;-59
2023/10/07 02:54:23;;;;;;;16.70;5.15;;;;;;;;;;5109575;28;20038;-58
2023/10/07 02:56:55;;;;;;;15.70;4.80;;;;;;;;;;5110327;28;20028;-59
2023/10/07 02:59:28;;;;;;;17.27;5.45;;;;;;;;;;5090337;28;20039;-59
2023/10/07 03:04:42;;;;;;;12.90;4.93;;;;;;;;;;5103742;28;20044;-59
2023/10/07 03:07:15;;;;;;;13.45;4.53;;;;;;;;;;5081150;28;20530;-59
2023/10/07 03:12:29;;;;;;;12.63;4.93;;;;;;;;;;5089768;28;20051;-59
2023/10/07 03:15:03;;;;;;;13.35;4.45;;;;;;;;;;5086648;28;20051;-59
2023/10/07 03:17:35;;;;;;;14.15;4.88;;;;;;;;;;5105818;28;20521;-59
2023/10/07 03:25:55;;;;;;;13.00;4.97;;;;;;;;;;5086050;28;20502;-59
2023/10/07 03:28:23;;;;;;;14.20;4.53;;;;;;;;;;5089921;28;20055;-59
2023/10/07 03:30:52;;;;;;;15.10;4.35;;;;;;;;;;5108205;28;20089;-59
2023/10/07 03:33:23;;;;;;;16.48;4.70;;;;;;;;;;5089687;28;20027;-57
2023/10/07 03:36:08;;;;;;;14.85;5.00;;;;;;;;;;5090659;28;20478;-58
2023/10/07 03:38:35;;;;;;;15.70;5.22;;;;;;;;;;5106987;28;20044;-58
2023/10/07 03:41:09;;;;;;;14.30;4.70;;;;;;;;;;5101846;28;20040;-57
2023/10/07 03:43:35;;;;;;;12.70;4.13;;;;;;;;;;5106825;28;20032;-58
2023/10/07 03:46:01;;;;;;;16.05;5.53;;;;;;;;;;5087580;28;20040;-58
2023/10/07 03:48:34;;;;;;;15.60;4.63;;;;;;;;;;5106408;28;20023;-58
2023/10/07 03:51:06;;;;;;;13.65;4.32;;;;;;;;;;5107959;28;20415;-58
2023/10/07 03:53:33;;;;;;;13.02;4.00;;;;;;;;;;5085650;28;20036;-59
2023/10/07 03:56:00;;;;;;;11.82;4.05;;;;;;;;;;5108914;28;20395;-59
2023/10/07 03:58:32;;;;;;;12.68;3.78;;;;;;;;;;5107021;28;20043;-58
2023/10/07 04:01:00;;;;;;;10.65;3.65;;;;;;;;;;5106894;28;20024;-59
2023/10/07 04:03:26;;;;;;;14.32;3.70;;;;;;;;;;5106294;28;20498;-59
2023/10/07 04:05:54;;;;;;;11.05;4.20;;;;;;;;;;5108145;28;20533;-59
2023/10/07 04:08:20;;;;;;;18.05;4.40;;;;;;;;;;5104715;28;20050;-59
2023/10/07 04:10:47;;;;;;;12.00;4.25;;;;;;;;;;5088001;28;20458;-58
2023/10/07 04:13:21;;;;;;;11.80;4.30;;;;;;;;;;5105248;28;20048;-59
2023/10/07 04:15:51;;;;;;;13.48;4.72;;;;;;;;;;5086157;28;20054;-59
2023/10/07 04:18:22;;;;;;;14.07;4.55;;;;;;;;;;5102553;28;20114;-59
2023/10/07 04:23:24;;;;;;;16.83;5.13;;;;;;;;;;5103390;28;20039;-58
2023/10/07 04:26:04;;;;;;;14.40;5.38;;;;;;;;;;5085426;28;20043;-58
2023/10/07 04:28:32;;;;;;;16.23;5.10;;;;;;;;;;5108816;28;20404;-59
2023/10/07 04:30:58;;;;;;;14.05;5.05;;;;;;;;;;5107648;28;20059;-59
2023/10/07 04:33:32;;;;;;;13.48;4.60;;;;;;;;;;5106607;28;20031;-59
2023/10/07 04:36:04;;;;;;;15.30;5.45;;;;;;;;;;5107030;28;20039;-59
2023/10/07 04:43:49;;;;;;;17.92;5.88;;;;;;;;;;5103715;28;20039;-59
2023/10/07 04:46:28;;;;;;;15.43;4.78;;;;;;;;;;5108247;28;20028;-59
2023/10/07 04:48:56;;;;;;;;;;;;;;;;;;;;;
2023/10/07 04:53:58;;;;;;;13.63;4.72;;;;;;;;;;5107347;28;20387;-59
2023/10/07 04:56:25;;;;;;;14.65;4.43;;;;;;;;;;5087510;28;20039;-58
2023/10/07 04:58:53;;;;;;;13.02;4.40;;;;;;;;;;5071602;28;20039;-58
2023/10/07 05:01:36;;;;;;;12.75;4.50;;;;;;;;;;5103611;28;20036;-59
2023/10/07 05:04:09;;;;;;;13.23;4.38;;;;;;;;;;5101033;28;20039;-59
2023/10/07 05:06:37;;;;;;;14.45;4.35;;;;;;;;;;5087779;28;20042;-59
2023/10/07 05:09:11;;;;;;;10.95;4.65;;;;;;;;;;5102630;28;20036;-59
2023/10/07 05:11:40;;;;;;;11.48;4.25;;;;;;;;;;5104756;28;20042;-59
2023/10/07 05:14:07;;;;;;;;;;;;;;;;;;5104248;28;20178;-59
2023/10/07 05:16:37;;;;;;;11.45;4.75;;;;;;;;;;5102772;28;20240;-59
2023/10/07 05:19:04;;;;;;;12.85;4.82;;;;;;;;;;5101136;28;20043;-59
2023/10/07 05:21:36;;;;;;;13.00;4.90;;;;;;;;;;5078280;28;20407;-58
2023/10/07 05:24:09;;;;;;;16.13;6.68;;;;;;;;;;5103560;28;20390;-59
2023/10/07 05:26:35;;;;;;;25.10;13.60;;;;;;;;;;5106397;28;20533;-59
2023/10/07 05:29:03;;;;;;;19.02;9.68;;;;;;;;;;5106685;28;20183;-59
2023/10/07 05:31:33;;;;;;;20.30;8.07;;;;;;;;;;5110608;28;20031;-59
2023/10/07 05:33:59;;;;;;;17.98;7.47;;;;;;;;;;5110848;28;20035;-59
2023/10/07 05:36:30;;;;;;;19.52;6.93;;;;;;;;;;5108790;28;20051;-59
2023/10/07 05:38:56;;;;;;;22.30;8.07;;;;;;;;;;5112236;28;20047;-60
2023/10/07 05:41:28;;;;;;;14.07;6.47;;;;;;;;;;5111764;28;20073;-59
2023/10/07 05:43:54;;;;;;;15.43;5.72;;;;;;;;;;5088421;28;20434;-59
2023/10/07 05:46:20;;;;;;;15.73;5.65;;;;;;;;;;5109120;28;20032;-59
2023/10/07 05:48:47;;;;;;;13.30;5.50;;;;;;;;;;5110398;28;20027;-59
2023/10/07 05:51:13;;;;;;;19.33;5.35;;;;;;;;;;5094215;28;20031;-59
2023/10/07 05:53:48;;;;;;;15.57;6.28;;;;;;;;;;5109154;28;20402;-59
2023/10/07 05:56:15;;;;;;;15.80;7.90;;;;;;;;;;5106749;28;20043;-66
2023/10/07 05:58:43;;;;;;;16.27;7.60;;;;;;;;;;5087669;28;20047;-60
2023/10/07 06:01:11;;;;;;;16.27;9.02;;;;;;;;;;5072728;28;20044;-59
2023/10/07 06:03:38;;;;;;;17.55;8.00;;;;;;;;;;5070966;28;20441;-58
2023/10/07 06:06:06;;;;;;;17.17;7.13;;;;;;;;;;5108332;28;20048;-59
2023/10/07 06:08:33;;;;;;;19.67;8.98;;;;;;;;;;5093410;28;20043;-60
2023/10/07 06:11:00;;;;;;;16.50;7.95;;;;;;;;;;5106485;28;20101;-60
2023/10/07 06:13:28;;;;;;;18.48;7.90;;;;;;;;;;5110429;28;20040;-59
2023/10/07 06:15:55;;;;;;;25.08;10.48;;;;;;;;;;5102908;28;20054;-59
2023/10/07 06:18:22;;;;;;;25.75;10.93;;;;;;;;;;5106507;28;20414;-59
2023/10/07 06:20:51;;;;;;;25.60;9.95;;;;;;;;;;5110227;28;20048;-59
2023/10/07 06:23:18;;;;;;;20.20;8.43;;;;;;;;;;5109880;28;20423;-60
2023/10/07 06:25:49;;;;;;;21.88;9.77;;;;;;;;;;5109467;28;20038;-60
2023/10/07 06:31:10;;;;;;;15.07;5.63;;;;;;;;;;5108321;28;20652;-58
2023/10/07 06:33:44;;;;;;;13.68;5.57;;;;;;;;;;5105069;28;20035;-58
2023/10/07 06:36:12;;;;;;;15.13;6.28;;;;;;;;;;5107211;28;20071;-59
2023/10/07 06:38:45;;;;;;;14.50;6.05;;;;;;;;;;5106164;28;20055;-59
2023/10/07 06:41:12;;;;;;;16.80;5.97;;;;;;;;;;5110853;28;20444;-61
2023/10/07 06:43:42;;;;;;;12.52;5.78;;;;;;;;;;5109698;28;20030;-59
2023/10/07 06:46:11;;;;;;;21.80;8.00;;;;;;;;;;5110580;28;20113;-59
2023/10/07 06:48:38;;;;;;;20.95;7.43;;;;;;;;;;5109485;28;20078;-58
2023/10/07 06:51:06;;;;;;;26.98;10.48;;;;;;;;;;5109857;28;20036;-60
2023/10/07 06:53:38;;;;;;;17.20;7.43;;;;;;;;;;5106484;28;20047;-59
2023/10/07 06:56:04;;;;;;;20.63;7.75;;;;;;;;;;5102213;28;20027;-59
2023/10/07 06:58:30;;;;;;;15.65;6.38;;;;;;;;;;5093056;28;20052;-59
2023/10/07 07:01:09;;;;;;;22.20;8.30;;;;;;;;;;5107211;28;20400;-59
2023/10/07 07:03:35;;;;;;;23.77;9.98;;;;;;;;;;5105438;28;20048;-59
2023/10/07 07:06:07;;;;;;;20.50;8.98;;;;;;;;;;5084034;28;20040;-59
2023/10/07 07:08:35;;;;;;;25.75;11.00;;;;;;;;;;5107072;28;20035;-59
2023/10/07 07:11:02;;;;;;;22.85;9.25;;;;;;;;;;5104053;28;20039;-59
2023/10/07 07:13:34;;;;;;;17.23;6.70;;;;;;;;;;5103563;28;20426;-60
2023/10/07 07:16:06;;;;;;;22.30;9.35;;;;;;;;;;5108253;28;20098;-60
2023/10/07 07:18:33;;;;;;;23.02;9.75;;;;;;;;;;5102318;28;20047;-60
2023/10/07 07:21:14;;;;;;;22.52;10.25;;;;;;;;;;5108716;28;20059;-60
2023/10/07 07:23:45;;;;;;;18.40;6.55;;;;;;;;;;5108702;28;20044;-60
2023/10/07 07:26:12;;;;;;;17.40;6.90;;;;;;;;;;5109804;28;20525;-58
2023/10/07 07:28:42;;;;;;;21.13;7.00;;;;;;;;;;5083764;28;20048;-58
2023/10/07 07:31:19;;;;;;;18.42;6.75;;;;;;;;;;5108112;28;20034;-59
2023/10/07 07:33:50;;;;;;;22.52;7.22;;;;;;;;;;5106981;28;20047;-58
2023/10/07 07:36:37;;;;;;;18.42;7.68;;;;;;;;;;5106592;28;20035;-59
2023/10/07 07:39:10;;;;;;;23.60;7.65;;;;;;;;;;5110090;28;20044;-58
2023/10/07 07:41:55;;;;;;;22.30;8.75;;;;;;;;;;5087624;28;20655;-59
2023/10/07 07:44:34;;;;;;;19.40;8.13;;;;;;;;;;5086582;28;20390;-58
2023/10/07 07:47:05;;;;;;;29.17;9.02;;;;;;;;;;5106027;28;20795;-58
2023/10/07 07:49:32;;;;;;;24.05;9.10;;;;;;;;;;5107484;28;20039;-59
2023/10/07 07:51:59;;;;;;;34.80;10.52;;;;;;;;;;5109456;28;20031;-58
2023/10/07 07:54:25;;;;;;;25.73;8.63;;;;;;;;;;5103359;28;20059;-58
2023/10/07 07:56:54;;;;;;;27.63;9.57;;;;;;;;;;5106477;28;20043;-58
2023/10/07 07:59:21;;;;;;;20.70;7.97;;;;;;;;;;5108611;28;20062;-58
2023/10/07 08:01:58;;;;;;;23.38;7.30;;;;;;;;;;5107513;28;20030;-58
2023/10/07 08:04:47;;;;;;;26.23;7.03;;;;;;;;;;5088595;28;20036;-58
2023/10/07 08:07:19;;;;;;;24.73;7.53;;;;;;;;;;5103423;28;20047;-58
2023/10/07 08:09:46;;;;;;;20.17;6.30;;;;;;;;;;5102894;28;20050;-58
2023/10/07 08:12:18;;;;;;;18.95;6.28;;;;;;;;;;5104277;28;20039;-58
2023/10/07 08:14:50;;;;;;;20.90;5.85;;;;;;;;;;5101468;28;20032;-57
2023/10/07 08:17:19;;;;;;;21.05;6.32;;;;;;;;;;5107990;28;20479;-57
2023/10/07 08:19:52;;;;;;;18.90;5.95;;;;;;;;;;5106286;28;20040;-57
2023/10/07 08:22:19;;;;;;;19.95;6.93;;;;;;;;;;5108882;28;20039;-57
2023/10/07 08:24:45;;;;;;;16.98;6.70;;;;;;;;;;5087450;28;20511;-58
2023/10/07 08:30:05;;;;;;;26.08;9.32;;;;;;;;;;5105639;28;20051;-60
2023/10/07 08:32:37;;;;;;;21.83;7.10;;;;;;;;;;5104220;28;20044;-59
2023/10/07 08:35:27;;;;;;;18.70;5.40;;;;;;;;;;5100606;28;20028;-58
2023/10/07 08:37:51;;;;;;;15.63;5.70;;;;;;;;;;5106632;28;20406;-58
2023/10/07 08:40:29;;;;;;;19.25;6.00;;;;;;;;;;5106436;28;20414;-59
2023/10/07 08:43:00;;;;;;;12.50;4.50;;;;;;;;;;5107171;28;20387;-58
2023/10/07 08:45:39;;;;;;;9.80;3.70;;;;;;;;;;5104436;28;20054;-59
2023/10/07 08:48:16;;;;;;;14.07;5.20;;;;;;;;;;5100903;28;20052;-58
2023/10/07 08:50:58;;;;;;;11.77;4.20;;;;;;;;;;5105000;28;20530;-58
2023/10/07 08:53:26;;;;;;;15.07;3.78;;;;;;;;;;5087532;28;20044;-57
2023/10/07 08:56:00;;;;;;;10.60;3.80;;;;;;;;;;5106301;28;20046;-57
2023/10/07 08:58:31;;;;;;;14.93;4.93;;;;;;;;;;5107397;28;20043;-58
2023/10/07 09:00:58;;;;;;;12.10;4.13;;;;;;;;;;5085278;28;20043;-58
2023/10/07 09:03:28;;;;;;;13.38;4.18;;;;;;;;;;5100599;28;20033;-58
2023/10/07 09:06:06;;;;;;;14.07;4.38;;;;;;;;;;5102805;28;20438;-58
2023/10/07 09:08:33;;;;;;;12.20;4.25;;;;;;;;;;5106085;28;20031;-58
2023/10/07 09:10:59;;;;;;;19.65;4.63;;;;;;;;;;5105013;28;20023;-58
2023/10/07 09:13:31;;;;;;;10.52;3.83;;;;;;;;;;5104981;28;20031;-58
2023/10/07 09:15:59;;;;;;;11.00;4.15;;;;;;;;;;5102487;28;20039;-58
2023/10/07 09:18:31;;;;;;;12.98;4.20;;;;;;;;;;5108506;28;20035;-58
2023/10/07 09:20:57;;;;;;;14.98;4.25;;;;;;;;;;5105493;28;20423;-58
2023/10/07 09:23:33;;;;;;;12.85;4.00;;;;;;;;;;5105912;28;20515;-58
2023/10/07 09:26:16;;;;;;;13.55;4.47;;;;;;;;;;5106170;28;20062;-58
2023/10/07 09:28:46;;;;;;;10.30;4.70;;;;;;;;;;5104579;28;20035;-57
2023/10/07 09:31:15;;;;;;;15.85;4.68;;;;;;;;;;5105189;28;20040;-57
2023/10/07 09:33:42;;;;;;;10.10;4.22;;;;;;;;;;5105264;28;20051;-59
2023/10/07 09:39:14;;;;;;;11.88;3.67;;;;;;;;;;5106981;28;20523;-57
2023/10/07 09:41:44;;;;;;;10.43;4.28;;;;;;;;;;5106896;28;20035;-58
2023/10/07 09:44:26;;;;;;;11.82;3.95;;;;;;;;;;5106479;28;20039;-57
2023/10/07 09:46:52;;;;;;;11.00;4.72;;;;;;;;;;5104466;28;20035;-57
2023/10/07 09:49:20;;;;;;;10.00;3.50;;;;;;;;;;5105791;28;20027;-56
2023/10/07 09:51:50;;;;;;;10.40;3.90;;;;;;;;;;5105275;28;20035;-57
2023/10/07 09:54:36;;;;;;;8.88;3.50;;;;;;;;;;5104381;28;20052;-57
2023/10/07 09:57:19;;;;;;;10.50;3.70;;;;;;;;;;5104858;28;20560;-57
2023/10/07 10:00:46;;;;;;;7.55;3.22;;;;;;;;;;5101712;28;20039;-57
2023/10/07 10:03:39;;;;;;;13.15;3.80;;;;;;;;;;5047634;28;20035;-57
2023/10/07 10:06:33;;;;;;;12.50;6.78;;;;;;;;;;5104349;28;20039;-58
2023/10/07 10:09:09;;;;;;;8.13;3.28;;;;;;;;;;5107249;28;20035;-57
2023/10/07 10:17:02;;;;;;;11.02;3.85;;;;;;;;;;5109502;28;20435;-57
2023/10/07 10:19:44;;;;;;;10.70;4.30;;;;;;;;;;5111281;28;20047;-58
2023/10/07 10:22:12;;;;;;;10.93;3.97;;;;;;;;;;5106132;28;20035;-57
2023/10/07 10:24:43;;;;;;;11.32;4.65;;;;;;;;;;5109584;28;20044;-56
2023/10/07 10:27:11;;;;;;;11.88;4.10;;;;;;;;;;5106744;28;20035;-57
2023/10/07 10:30:06;;;;;;;8.65;3.63;;;;;;;;;;5108629;28;20031;-57
2023/10/07 10:32:36;;;;;;;7.85;3.45;;;;;;;;;;5110379;28;20040;-57
2023/10/07 10:35:06;;;;;;;9.00;3.85;;;;;;;;;;5107530;28;20043;-57
2023/10/07 10:37:34;;;;;;;10.10;3.92;;;;;;;;;;5108018;28;20032;-56
2023/10/07 10:40:14;;;;;;;11.23;4.22;;;;;;;;;;5108915;28;20035;-58
2023/10/07 10:42:42;;;;;;;9.18;3.40;;;;;;;;;;5108990;28;20031;-57
2023/10/07 10:45:23;;;;;;;9.20;4.25;;;;;;;;;;5108344;28;20051;-57
2023/10/07 10:47:53;;;;;;;15.55;4.10;;;;;;;;;;5106526;28;20027;-57
2023/10/07 10:50:23;;;;;;;9.65;3.58;;;;;;;;;;5107842;28;20043;-58
2023/10/07 10:52:50;;;;;;;11.93;5.10;;;;;;;;;;5105690;28;20043;-57
2023/10/07 10:55:18;;;;;;;9.68;4.35;;;;;;;;;;5106622;28;20047;-57
2023/10/07 10:57:44;;;;;;;8.75;4.25;;;;;;;;;;5106976;28;20039;-59
2023/10/07 11:00:21;;;;;;;6.15;2.80;;;;;;;;;;5106664;28;20043;-59
2023/10/07 11:02:52;;;;;;;8.52;3.80;;;;;;;;;;5106009;28;20032;-59
2023/10/07 11:05:21;;;;;;;8.82;3.45;;;;;;;;;;5088715;28;20052;-58
2023/10/07 11:07:50;;;;;;;6.78;2.88;;;;;;;;;;5096417;28;20035;-58
2023/10/07 11:10:22;;;;;;;9.88;3.20;;;;;;;;;;5104559;28;20046;-59
2023/10/07 11:12:52;;;;;;;9.02;2.90;;;;;;;;;;5108994;28;20045;-58
2023/10/07 11:15:25;;;;;;;7.30;3.28;;;;;;;;;;5109800;28;20070;-59
2023/10/07 11:18:12;;;;;;;7.03;2.90;;;;;;;;;;5109444;28;20046;-60
2023/10/07 11:20:43;;;;;;;9.95;3.90;;;;;;;;;;5082676;28;20048;-57
2023/10/07 11:23:10;;;;;;;10.82;3.60;;;;;;;;;;5109527;28;20051;-59
2023/10/07 11:25:41;;;;;;;10.98;3.60;;;;;;;;;;5107313;28;20406;-57
2023/10/07 11:28:09;;;;;;;10.00;2.78;;;;;;;;;;5106501;28;20051;-58
2023/10/07 11:30:44;;;;;;;11.30;4.15;;;;;;;;;;5108576;28;20036;-58
2023/10/07 11:33:11;;;;;;;14.80;7.40;;;;;;;;;;5082432;28;20399;-57
2023/10/07 11:35:41;;;;;;;15.63;7.13;;;;;;;;;;5109819;28;20031;-57
2023/10/07 11:38:09;;;;;;;12.43;5.70;;;;;;;;;;5106453;28;20048;-59
2023/10/07 11:40:35;;;;;;;13.32;5.50;;;;;;;;;;5106509;28;20027;-57
2023/10/07 11:43:04;;;;;;;6.07;3.55;;;;;;;;;;5085944;28;20595;-57
2023/10/07 11:45:36;;;;;;;11.88;4.75;;;;;;;;;;5106550;28;20042;-57
2023/10/07 11:48:05;;;;;;;7.70;3.30;;;;;;;;;;5084949;28;20062;-58
2023/10/07 11:50:38;;;;;;;9.75;4.25;;;;;;;;;;5107113;28;20046;-58
2023/10/07 11:53:05;;;;;;;7.28;3.50;;;;;;;;;;5106534;28;20031;-59
2023/10/07 11:55:31;;;;;;;7.43;3.33;;;;;;;;;;5106080;28;20048;-58
2023/10/07 11:58:01;;;;;;;6.65;3.33;;;;;;;;;;5108203;28;20047;-59
2023/10/07 12:00:30;;;;;;;10.15;4.80;;;;;;;;;;5087614;28;20031;-59
2023/10/07 12:02:57;;;;;;;5.33;2.80;;;;;;;;;;5090627;28;20034;-57
2023/10/07 12:05:27;;;;;;;6.65;2.90;;;;;;;;;;5079454;28;20040;-57
2023/10/07 12:08:01;;;;;;;6.53;3.03;;;;;;;;;;5100538;28;20047;-58
2023/10/07 12:10:36;;;;;;;5.72;2.65;;;;;;;;;;5099805;28;20055;-58
2023/10/07 12:13:07;;;;;;;8.35;2.50;;;;;;;;;;5102804;28;20042;-58
2023/10/07 12:15:34;;;;;;;5.90;2.67;;;;;;;;;;5107082;28;20027;-58
2023/10/07 12:18:02;;;;;;;6.50;2.80;;;;;;;;;;5106166;28;20034;-58
2023/10/07 12:20:28;;;;;;;5.53;2.70;;;;;;;;;;5106992;28;20553;-58
2023/10/07 12:22:56;;;;;;;4.82;2.70;;;;;;;;;;5108389;28;20039;-58
2023/10/07 12:25:22;;;;;;;5.72;2.40;;;;;;;;;;5109159;28;20047;-58
2023/10/07 12:27:49;;;;;;;6.10;2.78;;;;;;;;;;5108452;28;20032;-58
2023/10/07 12:30:22;;;;;;;5.32;2.50;;;;;;;;;;5108690;28;20502;-58
2023/10/07 12:32:49;;;;;;;5.45;2.60;;;;;;;;;;5107624;28;20050;-58
2023/10/07 12:35:17;;;;;;;5.72;2.33;;;;;;;;;;5107070;28;20048;-57
2023/10/07 12:37:47;;;;;;;4.93;2.47;;;;;;;;;;5105834;28;20036;-57
2023/10/07 12:40:14;;;;;;;4.55;2.30;;;;;;;;;;5105661;28;20513;-58
2023/10/07 12:42:41;;;;;;;5.28;2.67;;;;;;;;;;5106096;28;20043;-58
2023/10/07 12:45:09;;;;;;;5.20;2.55;;;;;;;;;;5105799;28;20031;-58
2023/10/07 12:47:37;;;;;;;5.03;2.53;;;;;;;;;;5105389;28;20047;-58
2023/10/07 12:50:20;;;;;;;6.68;2.63;;;;;;;;;;5105746;28;20430;-58
2023/10/07 12:53:13;;;;;;;4.15;2.42;;;;;;;;;;5086942;28;20024;-58
2023/10/07 12:55:39;;;;;;;6.55;2.67;;;;;;;;;;5099869;28;20403;-58
2023/10/07 12:58:06;;;;;;;6.38;2.92;;;;;;;;;;5107556;28;20035;-58
2023/10/07 13:00:34;;;;;;;5.15;2.67;;;;;;;;;;5105203;28;20055;-58
2023/10/07 13:03:07;;;;;;;6.97;2.80;;;;;;;;;;5103131;28;20058;-58
2023/10/07 13:05:37;;;;;;;6.80;3.20;;;;;;;;;;5105572;28;20050;-59
2023/10/07 13:08:15;;;;;;;6.70;2.70;;;;;;;;;;5105809;28;20541;-58
2023/10/07 13:10:42;;;;;;;6.07;2.85;;;;;;;;;;5088193;28;20051;-58
2023/10/07 13:13:13;;;;;;;5.97;2.83;;;;;;;;;;5105908;28;20036;-59
2023/10/07 13:15:43;;;;;;;7.68;3.30;;;;;;;;;;5106793;28;20038;-59
2023/10/07 13:18:09;;;;;;;6.97;2.78;;;;;;;;;;5107530;28;20039;-59
2023/10/07 13:20:38;;;;;;;5.57;2.90;;;;;;;;;;5105937;28;20085;-58
2023/10/07 13:23:05;;;;;;;7.45;2.97;;;;;;;;;;5086210;28;20056;-58
2023/10/07 13:25:35;;;;;;;6.15;2.80;;;;;;;;;;5106113;28;20078;-58
2023/10/07 13:28:02;;;;;;;6.45;3.15;;;;;;;;;;5106525;28;20055;-58
2023/10/07 13:30:30;;;;;;;8.45;3.05;;;;;;;;;;5101344;28;20047;-59
2023/10/07 13:32:57;;;;;;;4.53;2.37;;;;;;;;;;5103297;28;20048;-59
2023/10/07 13:35:27;;;;;;;7.75;2.45;;;;;;;;;;5104582;28;20035;-58
2023/10/07 13:37:56;;;;;;;7.28;2.63;;;;;;;;;;5105691;28;20051;-59
2023/10/07 13:40:22;;;;;;;;;;;;;;;;;;5102474;28;20054;-58
2023/10/07 13:42:49;;;;;;;5.72;2.50;;;;;;;;;;5103622;28;19920;-58
2023/10/07 13:45:23;;;;;;;5.82;2.33;;;;;;;;;;5103798;28;20560;-58
2023/10/07 13:47:51;;;;;;;11.45;3.05;;;;;;;;;;5105594;28;20054;-58
2023/10/07 13:50:25;;;;;;;7.20;2.85;;;;;;;;;;5088475;28;20032;-58
2023/10/07 13:58:12;;;;;;;6.88;2.85;;;;;;;;;;5107282;28;20036;-58
2023/10/07 14:00:45;;;;;;;8.05;3.72;;;;;;;;;;5089152;28;20057;-57
2023/10/07 14:03:19;;;;;;;7.88;2.90;;;;;;;;;;5107748;28;20498;-58
2023/10/07 14:05:55;;;;;;;5.60;2.80;;;;;;;;;;5109974;28;20262;-58
2023/10/07 14:08:25;;;;;;;6.43;2.72;;;;;;;;;;5105530;28;20031;-57
2023/10/07 14:10:55;;;;;;;7.25;2.92;;;;;;;;;;5107423;28;20059;-58
2023/10/07 14:13:23;;;;;;;6.80;2.72;;;;;;;;;;5110335;28;20081;-58
2023/10/07 14:15:50;;;;;;;6.53;2.50;;;;;;;;;;5107962;28;20090;-58
2023/10/07 14:18:20;;;;;;;8.32;2.70;;;;;;;;;;5112145;27;20048;-58
2023/10/07 14:20:52;;;;;;;5.10;2.83;;;;;;;;;;5112783;27;20051;-58
2023/10/07 14:23:19;;;;;;;6.97;2.75;;;;;;;;;;5092651;28;20114;-58
2023/10/07 14:25:49;;;;;;;7.88;3.30;;;;;;;;;;5110063;28;20039;-58
2023/10/07 14:28:19;;;;;;;4.28;2.50;;;;;;;;;;5111131;27;20036;-58
2023/10/07 14:30:50;;;;;;;7.32;2.90;;;;;;;;;;5108067;28;20055;-58
2023/10/07 14:33:17;;;;;;;4.95;2.70;;;;;;;;;;5084242;28;20050;-60
2023/10/07 14:35:46;;;;;;;8.10;3.10;;;;;;;;;;5107487;28;20032;-58
2023/10/07 14:38:13;;;;;;;5.50;3.30;;;;;;;;;;5112490;27;20042;-58
2023/10/07 14:40:42;;;;;;;6.05;2.75;;;;;;;;;;5107379;28;20039;-58
2023/10/07 14:43:12;;;;;;;6.78;2.95;;;;;;;;;;5108039;27;20035;-57
2023/10/07 14:45:46;;;;;;;5.72;2.80;;;;;;;;;;5106710;28;20032;-58
2023/10/07 14:48:12;;;;;;;5.50;2.90;;;;;;;;;;5104110;28;20052;-59
2023/10/07 14:50:41;;;;;;;6.43;2.67;;;;;;;;;;5089518;28;20032;-57
2023/10/07 14:53:07;;;;;;;6.43;2.95;;;;;;;;;;5105202;28;20040;-57
2023/10/07 14:55:34;;;;;;;7.05;2.90;;;;;;;;;;5107331;27;20035;-57
2023/10/07 14:58:01;;;;;;;6.47;2.78;;;;;;;;;;5109067;28;20046;-57
2023/10/07 15:00:31;;;;;;;5.15;2.78;;;;;;;;;;5106866;28;20042;-56
2023/10/07 15:03:01;;;;;;;9.05;2.78;;;;;;;;;;5107727;28;20040;-58
2023/10/07 15:05:28;;;;;;;6.32;2.72;;;;;;;;;;5108464;28;20098;-56
2023/10/07 15:07:54;;;;;;;6.00;2.60;;;;;;;;;;5108060;28;20027;-57
2023/10/07 15:10:21;;;;;;;8.60;3.03;;;;;;;;;;5109116;28;20035;-57
2023/10/07 15:12:47;;;;;;;6.10;3.00;;;;;;;;;;5107989;28;20047;-58
2023/10/07 15:15:14;;;;;;;6.60;3.03;;;;;;;;;;5109423;28;20038;-58
2023/10/07 15:17:40;;;;;;;7.03;3.17;;;;;;;;;;5110772;28;20039;-57
2023/10/07 15:20:07;;;;;;;5.55;2.83;;;;;;;;;;5109816;28;20039;-57
2023/10/07 15:22:33;;;;;;;5.22;2.70;;;;;;;;;;5105808;28;20055;-58
2023/10/07 15:24:59;;;;;;;9.45;3.20;;;;;;;;;;5090542;28;20040;-58
2023/10/07 15:27:28;;;;;;;6.30;2.88;;;;;;;;;;5109641;28;20534;-58
2023/10/07 15:30:01;;;;;;;7.35;3.00;;;;;;;;;;5106717;28;20039;-58
2023/10/07 15:32:29;;;;;;;6.03;2.67;;;;;;;;;;5106022;28;20491;-58
2023/10/07 15:34:59;;;;;;;5.88;2.63;;;;;;;;;;5107014;28;20023;-58
2023/10/07 15:37:26;;;;;;;8.48;3.22;;;;;;;;;;5108258;28;20399;-58
2023/10/07 15:39:53;;;;;;;5.47;2.58;;;;;;;;;;5108297;28;20047;-58
2023/10/07 15:42:20;;;;;;;7.78;3.00;;;;;;;;;;5104537;28;20044;-57
2023/10/07 15:44:47;;;;;;;7.03;2.97;;;;;;;;;;5086066;28;20044;-57
2023/10/07 15:47:13;;;;;;;5.93;2.78;;;;;;;;;;5084291;28;20031;-57
2023/10/07 15:49:42;;;;;;;6.97;2.80;;;;;;;;;;5103891;28;20031;-58
2023/10/07 15:52:08;;;;;;;8.55;3.50;;;;;;;;;;5103541;28;20050;-57
2023/10/07 15:54:34;;;;;;;5.32;2.97;;;;;;;;;;5101108;28;20515;-58